Accueil
METAR-TAF:

METAR-TAF

Aéroports :

Turin, Italie

latitude: 45-05-20N, longitude: 007-36-20E, altitude: 288 m

Observation

Le bulletin a été fait il y a 5 heures et 31 minutes, à 15:50 UTC
Vent calme
Température 6°C
Humidité 81%
Pression 1018 hPa
Visibilité: 9000 m
Nuages fragmentés à une hauteur de 4500 ft

METAR: LIMA 201550Z 00000KT 9000 BKN045 06/03 Q1018

Heure: 22:21 (21:21 UTC)


TAF: absent

Observations et prévisions météorologiques de plus de 4000 aéroports (messages METAR et TAF).

Les stations disponibles sont représentées par des disques jaunes et rouges sur la carte.

Passer la souris dessus pour voir le nom de la station.

Cliquer dessus pour voir les observations et prévisions météorologiques.

Pour changer de carte: cliquez sur les boutons verts avec une croix noire pour zoomer, sur le bouton vert avec un tiret pour effectuer un zoom arrière, ou sur les flèches vertes pour les cartes adjacentes.


METAR-TAF: